Time;durP1;ratioP1;P1;durP2;ratioP2;P2;SDS_P1;SDS_P2;PMS_P1;PMS_P2;Temp;Humidity;BMP_temperature;BMP_pressure;BME280_temperature;BME280_humidity;BME280_pressure;Samples;Min_cycle;Max_cycle;Signal;HPM_P1;HPM_P2
2024/02/03 00:00:44;;;;;;;10.47;6.13;;;16.80;99.90;;;;;;4979769;28;20080;-72
2024/02/03 00:03:09;;;;;;;11.70;6.27;;;16.80;99.90;;;;;;4976231;28;20035;-73
2024/02/03 00:05:35;;;;;;;13.80;5.90;;;16.80;99.90;;;;;;5014077;28;20387;-75
2024/02/03 00:08:01;;;;;;;13.30;6.27;;;16.80;99.90;;;;;;4980750;28;20039;-72
2024/02/03 00:10:26;;;;;;;9.17;5.90;;;16.70;99.90;;;;;;4986847;28;20026;-73
2024/02/03 00:12:52;;;;;;;10.80;5.97;;;16.70;99.90;;;;;;4977999;28;20054;-74
2024/02/03 00:15:17;;;;;;;10.87;5.63;;;16.70;99.90;;;;;;4983683;28;20072;-73
2024/02/03 00:17:43;;;;;;;10.20;5.63;;;16.70;99.90;;;;;;4972534;28;20111;-76
2024/02/03 00:20:10;;;;;;;13.70;6.27;;;16.70;99.90;;;;;;4971365;28;20039;-74
2024/02/03 00:22:35;;;;;;;12.50;5.18;;;16.70;99.90;;;;;;4984854;28;20536;-72
2024/02/03 00:25:01;;;;;;;15.20;6.23;;;16.70;99.90;;;;;;4973123;28;20127;-72
2024/02/03 00:27:27;;;;;;;9.13;5.33;;;16.70;99.90;;;;;;4994854;28;20035;-72
2024/02/03 00:29:53;;;;;;;11.77;5.80;;;16.70;99.90;;;;;;4975397;28;20380;-75
2024/02/03 00:32:18;;;;;;;8.60;5.27;;;16.70;99.90;;;;;;4984671;28;20034;-75
2024/02/03 00:34:46;;;;;;;9.23;5.40;;;16.70;99.90;;;;;;4992536;28;20043;-72
2024/02/03 00:37:12;;;;;;;10.00;5.10;;;16.70;99.90;;;;;;4980249;28;20080;-72
2024/02/03 00:39:42;;;;;;;8.50;4.63;;;16.70;99.90;;;;;;4976027;28;20059;-73
2024/02/03 00:42:08;;;;;;;9.93;5.25;;;16.70;99.90;;;;;;4986570;28;20047;-72
2024/02/03 00:44:34;;;;;;;9.00;5.07;;;16.70;99.90;;;;;;4987877;28;20030;-72
2024/02/03 00:46:59;;;;;;;10.47;4.73;;;16.70;99.90;;;;;;4988537;28;20039;-72
2024/02/03 00:49:25;;;;;;;10.70;5.23;;;16.70;99.90;;;;;;4973074;28;20058;-73
2024/02/03 00:51:51;;;;;;;8.37;5.00;;;16.70;99.90;;;;;;4984222;28;20387;-73
2024/02/03 00:54:16;;;;;;;8.27;4.90;;;16.70;99.90;;;;;;4989040;28;20030;-74
2024/02/03 00:56:42;;;;;;;9.23;4.50;;;16.60;99.90;;;;;;4989613;28;20428;-74
2024/02/03 00:59:08;;;;;;;12.67;4.67;;;16.60;99.90;;;;;;4981749;28;20475;-75
2024/02/03 01:01:33;;;;;;;10.93;5.17;;;16.60;99.90;;;;;;4977945;28;20672;-73
2024/02/03 01:03:59;;;;;;;9.23;4.43;;;16.60;99.90;;;;;;4986869;28;20034;-73
2024/02/03 01:06:25;;;;;;;11.73;4.40;;;16.60;99.90;;;;;;4988952;28;20066;-73
2024/02/03 01:08:50;;;;;;;6.23;4.10;;;16.60;99.90;;;;;;4984032;28;20041;-72
2024/02/03 01:11:16;;;;;;;5.93;3.83;;;16.60;99.90;;;;;;4981710;28;20073;-72
2024/02/03 01:13:43;;;;;;;8.67;4.80;;;16.60;99.90;;;;;;4985232;28;20392;-74
2024/02/03 01:16:09;;;;;;;8.45;4.38;;;16.60;99.90;;;;;;4982298;28;20034;-75
2024/02/03 01:18:34;;;;;;;6.87;4.00;;;16.60;99.90;;;;;;4991623;28;20039;-72
2024/02/03 01:21:00;;;;;;;12.37;4.07;;;16.60;99.90;;;;;;4987290;28;20089;-74
2024/02/03 01:23:26;;;;;;;7.43;4.00;;;16.60;99.90;;;;;;4975579;28;20385;-74
2024/02/03 01:25:52;;;;;;;7.95;4.47;;;16.60;99.90;;;;;;4973519;28;20764;-72
2024/02/03 01:28:18;;;;;;;10.38;4.22;;;16.60;99.90;;;;;;4982057;28;20034;-73
2024/02/03 01:30:43;;;;;;;9.07;4.40;;;16.60;99.90;;;;;;4979871;28;20038;-72
2024/02/03 01:33:09;;;;;;;6.17;3.77;;;16.60;99.90;;;;;;4989938;28;20451;-72
2024/02/03 01:35:35;;;;;;;6.07;3.77;;;16.60;99.90;;;;;;4983279;28;20042;-74
2024/02/03 01:38:01;;;;;;;8.90;4.50;;;16.50;99.90;;;;;;4978731;28;20081;-75
2024/02/03 01:40:28;;;;;;;9.45;4.30;;;16.50;99.90;;;;;;4973532;28;20031;-73
2024/02/03 01:42:59;;;;;;;6.88;3.13;;;16.50;99.90;;;;;;5007402;28;20031;-74
2024/02/03 01:45:26;;;;;;;6.28;3.60;;;16.50;99.90;;;;;;4993513;28;20066;-73
2024/02/03 01:47:52;;;;;;;5.72;3.38;;;16.50;99.90;;;;;;4982338;28;20031;-72
2024/02/03 01:50:18;;;;;;;7.15;3.67;;;16.50;99.90;;;;;;4991991;28;20023;-72
2024/02/03 01:52:46;;;;;;;5.67;2.97;;;16.50;99.90;;;;;;4971101;28;20046;-73
2024/02/03 01:55:12;;;;;;;4.57;3.00;;;16.50;99.90;;;;;;4977564;28;20034;-72
2024/02/03 01:57:41;;;;;;;6.53;3.22;;;16.50;99.90;;;;;;4991506;28;20030;-73
2024/02/03 02:00:07;;;;;;;7.10;3.50;;;16.50;99.90;;;;;;4986712;28;20419;-73
2024/02/03 02:02:33;;;;;;;5.53;2.85;;;16.50;99.90;;;;;;4986499;28;20055;-73
2024/02/03 02:04:58;;;;;;;5.20;3.37;;;16.50;99.90;;;;;;4977060;28;20491;-72
2024/02/03 02:07:24;;;;;;;6.73;3.63;;;16.50;99.90;;;;;;5008244;28;20025;-74
2024/02/03 02:09:52;;;;;;;6.07;2.83;;;16.50;99.90;;;;;;4982595;28;20461;-73
2024/02/03 02:12:18;;;;;;;6.97;3.05;;;16.50;99.90;;;;;;4984249;28;20493;-74
2024/02/03 02:14:44;;;;;;;5.23;2.90;;;16.50;99.90;;;;;;4982320;28;20022;-75
2024/02/03 02:17:10;;;;;;;6.23;3.20;;;16.50;99.90;;;;;;4983482;28;20031;-73
2024/02/03 02:19:35;;;;;;;8.00;3.10;;;16.50;99.90;;;;;;4973962;28;20038;-73
2024/02/03 02:22:01;;;;;;;6.30;3.00;;;16.50;99.90;;;;;;4975517;28;20054;-72
2024/02/03 02:24:27;;;;;;;6.60;2.97;;;16.50;99.90;;;;;;4978326;28;20060;-76
2024/02/03 02:26:52;;;;;;;5.03;3.07;;;16.50;99.90;;;;;;4988099;28;20104;-73
2024/02/03 02:29:18;;;;;;;7.20;2.90;;;16.50;99.90;;;;;;4971721;28;20033;-73
2024/02/03 02:31:44;;;;;;;4.40;2.47;;;16.40;99.90;;;;;;4971359;28;20031;-73
2024/02/03 02:34:09;;;;;;;5.77;3.00;;;16.40;99.90;;;;;;4978289;28;20054;-74
2024/02/03 02:36:35;;;;;;;7.00;2.67;;;16.40;99.90;;;;;;5003045;28;20061;-72
2024/02/03 02:39:01;;;;;;;9.43;2.80;;;16.40;99.90;;;;;;4982678;28;20046;-73
2024/02/03 02:41:27;;;;;;;5.00;2.80;;;16.40;99.90;;;;;;4978638;28;20801;-73
2024/02/03 02:43:53;;;;;;;5.20;2.60;;;16.40;99.90;;;;;;4981065;28;20066;-75
2024/02/03 02:46:25;;;;;;;8.83;2.53;;;16.40;99.90;;;;;;4988024;28;20066;-72
2024/02/03 02:48:51;;;;;;;5.55;2.13;;;16.40;99.90;;;;;;4991860;28;20022;-73
2024/02/03 02:51:17;;;;;;;5.28;2.55;;;16.40;99.90;;;;;;4982752;28;20040;-73
2024/02/03 02:53:43;;;;;;;7.63;2.30;;;16.40;99.90;;;;;;4981767;28;20034;-72
2024/02/03 02:56:08;;;;;;;3.60;2.33;;;16.40;99.90;;;;;;4973893;28;20039;-75
2024/02/03 02:58:34;;;;;;;3.83;2.10;;;16.40;99.90;;;;;;4975013;28;20499;-72
2024/02/03 03:01:00;;;;;;;7.40;2.60;;;16.40;99.90;;;;;;4972386;28;20118;-73
2024/02/03 03:03:26;;;;;;;5.77;2.30;;;16.40;99.90;;;;;;4972173;28;20096;-73
2024/02/03 03:05:51;;;;;;;5.40;2.10;;;16.40;99.90;;;;;;4970682;28;20031;-72
2024/02/03 03:08:17;;;;;;;6.63;2.23;;;16.40;99.90;;;;;;4986778;28;20461;-72
2024/02/03 03:10:42;;;;;;;5.47;2.10;;;16.40;99.90;;;;;;4984612;28;20455;-72
2024/02/03 03:13:08;;;;;;;7.77;2.07;;;16.40;99.90;;;;;;4968269;28;20474;-73
2024/02/03 03:15:34;;;;;;;5.97;1.77;;;16.30;99.90;;;;;;4971716;28;20031;-76
2024/02/03 03:17:59;;;;;;;11.20;2.53;;;16.30;99.90;;;;;;4972260;28;20036;-74
2024/02/03 03:20:25;;;;;;;4.80;2.03;;;16.30;99.90;;;;;;5002614;28;20169;-72
2024/02/03 03:22:51;;;;;;;5.93;2.13;;;16.30;99.90;;;;;;4972483;28;20059;-72
2024/02/03 03:25:16;;;;;;;3.23;1.83;;;16.30;99.90;;;;;;4972530;28;20046;-72
2024/02/03 03:27:42;;;;;;;4.67;1.50;;;16.30;99.90;;;;;;4972546;28;20034;-72
2024/02/03 03:30:09;;;;;;;3.17;2.03;;;16.30;99.90;;;;;;4967305;28;20077;-72
2024/02/03 03:32:34;;;;;;;9.20;2.20;;;16.30;99.90;;;;;;4969678;28;20126;-72
2024/02/03 03:35:00;;;;;;;4.73;1.73;;;16.30;99.90;;;;;;4967574;28;20126;-72
2024/02/03 03:37:26;;;;;;;4.20;1.70;;;16.30;99.90;;;;;;5000337;28;20043;-74
2024/02/03 03:39:52;;;;;;;7.90;1.67;;;16.30;99.90;;;;;;4986806;28;20033;-72
2024/02/03 03:42:18;;;;;;;3.90;1.70;;;16.30;99.90;;;;;;4971789;28;20031;-74
2024/02/03 03:44:44;;;;;;;4.43;1.42;;;16.30;99.90;;;;;;4986516;28;20030;-73
2024/02/03 03:47:12;;;;;;;7.95;1.73;;;16.30;99.90;;;;;;4972681;28;20038;-75
2024/02/03 03:49:37;;;;;;;7.25;2.08;;;16.30;99.90;;;;;;4986616;28;20042;-75
2024/02/03 03:52:04;;;;;;;4.13;1.83;;;16.30;99.90;;;;;;4972588;28;20035;-74
2024/02/03 03:54:29;;;;;;;4.40;1.50;;;16.30;99.90;;;;;;4986377;28;20034;-74
2024/02/03 03:56:55;;;;;;;4.30;1.70;;;16.30;99.90;;;;;;4970431;28;20039;-72
2024/02/03 03:59:21;;;;;;;3.13;1.10;;;16.30;99.90;;;;;;4971282;28;20038;-73
2024/02/03 04:01:50;;;;;;;9.07;1.80;;;16.30;99.90;;;;;;4970827;28;20038;-75
2024/02/03 04:04:17;;;;;;;4.10;1.98;;;16.30;99.90;;;;;;4970453;28;20037;-72
2024/02/03 04:06:44;;;;;;;5.30;1.45;;;16.30;99.90;;;;;;4970198;28;20034;-75
2024/02/03 04:09:10;;;;;;;5.80;1.50;;;16.30;99.90;;;;;;4970293;28;20700;-72
2024/02/03 04:11:37;;;;;;;;;;;16.30;99.90;;;;;;4971765;28;20026;-72
2024/02/03 04:14:02;;;;;;;4.22;1.55;;;16.30;99.90;;;;;;4972209;28;19910;-72
2024/02/03 04:16:28;;;;;;;4.63;1.60;;;16.30;99.90;;;;;;4971824;28;20054;-72
2024/02/03 04:18:54;;;;;;;2.70;1.10;;;16.20;99.90;;;;;;4971897;28;20042;-74
2024/02/03 04:21:20;;;;;;;6.03;1.33;;;16.20;99.90;;;;;;4971967;28;20039;-73
2024/02/03 04:23:45;;;;;;;2.70;1.10;;;16.20;99.90;;;;;;4971189;28;20019;-72
2024/02/03 04:26:11;;;;;;;3.33;1.20;;;16.20;99.90;;;;;;4971765;28;20117;-72
2024/02/03 04:28:37;;;;;;;2.43;1.23;;;16.20;99.90;;;;;;4970396;28;20027;-72
2024/02/03 04:31:03;;;;;;;4.37;1.60;;;16.30;99.90;;;;;;4971368;28;20562;-74
2024/02/03 04:33:29;;;;;;;2.58;0.88;;;16.20;99.90;;;;;;4971334;28;20053;-72
2024/02/03 04:35:55;;;;;;;1.90;1.10;;;16.20;99.90;;;;;;4969280;28;20384;-73
2024/02/03 04:38:21;;;;;;;2.97;1.20;;;16.20;99.90;;;;;;4973873;28;20030;-72
2024/02/03 04:40:46;;;;;;;3.43;1.13;;;16.20;99.90;;;;;;4971775;28;20030;-72
2024/02/03 04:43:12;;;;;;;2.93;1.20;;;16.20;99.90;;;;;;4971101;28;20031;-75
2024/02/03 04:45:38;;;;;;;4.80;1.43;;;16.20;99.90;;;;;;4971306;28;20031;-72
2024/02/03 04:48:04;;;;;;;7.83;1.30;;;16.30;99.90;;;;;;4967002;28;20507;-72
2024/02/03 04:50:29;;;;;;;3.03;1.50;;;16.20;99.90;;;;;;4965426;28;20031;-73
2024/02/03 04:52:55;;;;;;;3.20;1.07;;;16.20;99.90;;;;;;4969706;28;20765;-72
2024/02/03 04:55:22;;;;;;;3.27;1.63;;;16.20;99.90;;;;;;4977935;28;20027;-72
2024/02/03 04:57:47;;;;;;;2.80;1.27;;;16.20;99.90;;;;;;4985721;28;20038;-75
2024/02/03 05:00:14;;;;;;;3.63;1.37;;;16.20;99.90;;;;;;4971313;28;20480;-74
2024/02/03 05:02:41;;;;;;;4.05;1.40;;;16.20;99.90;;;;;;4971371;28;20117;-75
2024/02/03 05:05:06;;;;;;;4.20;1.20;;;16.20;99.90;;;;;;4971484;28;20029;-72
2024/02/03 05:07:33;;;;;;;4.13;1.27;;;16.20;99.90;;;;;;4971225;28;20031;-73
2024/02/03 05:09:58;;;;;;;6.88;1.50;;;16.20;99.90;;;;;;4970714;28;20031;-72
2024/02/03 05:12:24;;;;;;;2.40;1.10;;;16.20;99.90;;;;;;4974174;28;20047;-72
2024/02/03 05:14:50;;;;;;;3.73;1.50;;;16.20;99.90;;;;;;4974669;28;20503;-73
2024/02/03 05:17:15;;;;;;;6.20;1.20;;;16.20;99.90;;;;;;4970377;28;20392;-72
2024/02/03 05:19:41;;;;;;;6.07;1.00;;;16.20;99.90;;;;;;4968603;28;20531;-74
2024/02/03 05:22:07;;;;;;;6.00;1.63;;;16.20;99.90;;;;;;4974387;28;20531;-74
2024/02/03 05:24:32;;;;;;;3.47;1.50;;;16.20;99.90;;;;;;4989116;28;20141;-74
2024/02/03 05:26:58;;;;;;;3.57;1.07;;;16.20;99.90;;;;;;4974430;28;20034;-72
2024/02/03 05:29:23;;;;;;;2.53;1.13;;;16.10;99.90;;;;;;4971907;28;20416;-74
2024/02/03 05:31:49;;;;;;;6.03;1.40;;;16.20;99.90;;;;;;4978941;28;20082;-73
2024/02/03 05:34:15;;;;;;;2.70;0.90;;;16.10;99.90;;;;;;4974166;28;20065;-73
2024/02/03 05:36:41;;;;;;;4.60;1.07;;;16.10;99.90;;;;;;4974141;28;20062;-75
2024/02/03 05:39:07;;;;;;;4.27;1.40;;;16.10;99.90;;;;;;4974498;28;20065;-75
2024/02/03 05:41:33;;;;;;;5.10;1.20;;;16.10;99.90;;;;;;4974265;28;20031;-73
2024/02/03 05:43:58;;;;;;;2.40;1.10;;;16.10;99.90;;;;;;4974142;28;20057;-71
2024/02/03 05:46:24;;;;;;;2.40;1.50;;;16.10;99.90;;;;;;4988768;28;20287;-72
2024/02/03 05:48:50;;;;;;;4.10;1.70;;;16.10;99.90;;;;;;4988842;28;20035;-72
2024/02/03 05:51:17;;;;;;;3.67;1.17;;;16.10;99.90;;;;;;4988995;28;20027;-72
2024/02/03 05:53:43;;;;;;;2.33;1.20;;;16.10;99.90;;;;;;4974226;28;20380;-72
2024/02/03 05:56:09;;;;;;;6.25;1.15;;;16.10;99.90;;;;;;4969282;28;20051;-73
2024/02/03 05:58:35;;;;;;;4.13;1.00;;;16.10;99.90;;;;;;4964519;28;20077;-72
2024/02/03 06:01:00;;;;;;;3.40;1.10;;;16.10;99.90;;;;;;4986716;28;20034;-74
2024/02/03 06:03:26;;;;;;;2.47;1.07;;;16.10;99.90;;;;;;4972539;28;20072;-75
2024/02/03 06:05:52;;;;;;;2.83;1.07;;;16.10;99.90;;;;;;4973481;28;20034;-71
2024/02/03 06:08:18;;;;;;;4.30;0.98;;;16.10;99.90;;;;;;4972409;28;20060;-73
2024/02/03 06:10:44;;;;;;;3.30;1.27;;;16.10;99.90;;;;;;4969353;28;20031;-72
2024/02/03 06:13:09;;;;;;;3.87;0.87;;;16.10;99.90;;;;;;4972076;28;20049;-75
2024/02/03 06:15:35;;;;;;;3.10;0.83;;;16.00;99.90;;;;;;4973447;28;20031;-73
2024/02/03 06:18:01;;;;;;;5.23;1.17;;;16.00;99.90;;;;;;4973361;28;20106;-72
2024/02/03 06:20:26;;;;;;;3.13;0.97;;;16.00;99.90;;;;;;4973363;28;20467;-72
2024/02/03 06:22:52;;;;;;;3.07;1.10;;;16.00;99.90;;;;;;4977968;28;20035;-72
2024/02/03 06:25:18;;;;;;;8.13;1.63;;;16.00;99.90;;;;;;4976784;28;20035;-72
2024/02/03 06:27:43;;;;;;;3.63;0.97;;;16.00;99.90;;;;;;4985966;28;20046;-72
2024/02/03 06:30:09;;;;;;;12.00;2.30;;;16.00;99.90;;;;;;4978934;28;20030;-72
2024/02/03 06:32:35;;;;;;;5.85;1.40;;;16.00;99.90;;;;;;4983012;28;20034;-76
2024/02/03 06:35:01;;;;;;;2.77;1.13;;;16.00;99.90;;;;;;4981685;28;20383;-76
2024/02/03 06:37:27;;;;;;;2.67;0.90;;;16.00;99.90;;;;;;4985822;28;20030;-74
2024/02/03 06:39:52;;;;;;;5.03;0.97;;;16.00;99.90;;;;;;4972295;28;20038;-75
2024/02/03 06:42:18;;;;;;;5.70;1.27;;;16.00;99.90;;;;;;4975157;28;20042;-72
2024/02/03 06:44:44;;;;;;;1.77;0.83;;;16.00;99.90;;;;;;4972860;28;20030;-72
2024/02/03 06:47:09;;;;;;;3.17;1.00;;;16.00;99.90;;;;;;4978783;28;20034;-75
2024/02/03 06:49:35;;;;;;;2.10;1.00;;;15.90;99.90;;;;;;4983669;28;20035;-73
2024/02/03 06:52:01;;;;;;;3.47;0.97;;;15.90;99.90;;;;;;4981651;28;20454;-73
2024/02/03 06:54:27;;;;;;;2.95;0.90;;;15.90;99.90;;;;;;4980730;28;20022;-72
2024/02/03 06:56:52;;;;;;;5.93;1.23;;;15.90;99.90;;;;;;4983082;28;20075;-72
2024/02/03 06:59:18;;;;;;;1.50;0.77;;;15.90;99.90;;;;;;4973888;28;20058;-74
2024/02/03 07:01:44;;;;;;;4.10;1.07;;;15.90;99.90;;;;;;4977437;28;20035;-72
2024/02/03 07:04:09;;;;;;;4.37;1.20;;;15.90;99.90;;;;;;4979249;28;20030;-72
2024/02/03 07:06:35;;;;;;;5.40;1.20;;;16.00;99.90;;;;;;4978220;28;20037;-72
2024/02/03 07:09:01;;;;;;;4.07;1.17;;;15.90;99.90;;;;;;4980207;28;20030;-73
2024/02/03 07:11:27;;;;;;;7.47;1.20;;;15.90;99.90;;;;;;4979419;28;20080;-71
2024/02/03 07:13:52;;;;;;;3.70;0.90;;;15.90;99.90;;;;;;4983749;28;20074;-72
2024/02/03 07:16:18;;;;;;;3.87;1.50;;;15.90;99.90;;;;;;4985675;28;20678;-72
2024/02/03 07:18:44;;;;;;;2.87;0.80;;;15.90;99.90;;;;;;4970744;28;20030;-72
2024/02/03 07:21:09;;;;;;;2.47;0.90;;;15.90;99.90;;;;;;4970943;28;20130;-75
2024/02/03 07:23:35;;;;;;;2.73;0.80;;;15.90;99.90;;;;;;4972449;28;20059;-72
2024/02/03 07:26:01;;;;;;;4.70;0.80;;;15.90;99.90;;;;;;4968790;28;20039;-72
2024/02/03 07:28:26;;;;;;;2.63;1.10;;;15.90;99.90;;;;;;4972306;28;20035;-75
2024/02/03 07:30:52;;;;;;;2.57;0.80;;;15.90;99.90;;;;;;4971930;28;20058;-72
2024/02/03 07:33:18;;;;;;;1.17;0.80;;;15.90;99.90;;;;;;4971612;28;20042;-74
2024/02/03 07:35:43;;;;;;;5.30;1.37;;;15.90;99.90;;;;;;4971496;28;20041;-72
2024/02/03 07:38:09;;;;;;;3.77;1.23;;;15.80;99.90;;;;;;4971991;28;20042;-72
2024/02/03 07:40:35;;;;;;;2.40;0.90;;;15.80;99.90;;;;;;4971224;28;20504;-72
2024/02/03 07:43:00;;;;;;;3.40;0.90;;;15.80;99.90;;;;;;4972262;28;20106;-72
2024/02/03 07:45:26;;;;;;;3.37;1.10;;;15.90;99.90;;;;;;4971714;28;20035;-75
2024/02/03 07:47:52;;;;;;;5.17;1.23;;;15.90;99.90;;;;;;4971898;28;20457;-73
2024/02/03 07:50:18;;;;;;;4.65;1.15;;;15.90;99.90;;;;;;4971991;28;20022;-72
2024/02/03 07:52:44;;;;;;;2.40;0.90;;;15.90;99.90;;;;;;4971450;28;20495;-72
2024/02/03 07:55:09;;;;;;;4.50;1.30;;;15.90;99.90;;;;;;4971406;28;20045;-72
2024/02/03 07:57:35;;;;;;;4.60;1.23;;;15.90;99.90;;;;;;4989735;28;20422;-73
2024/02/03 08:00:01;;;;;;;4.30;0.90;;;15.90;99.90;;;;;;4990456;28;20449;-72
2024/02/03 08:02:26;;;;;;;4.43;1.40;;;15.90;99.90;;;;;;4986601;28;20133;-72
2024/02/03 08:04:53;;;;;;;4.90;0.77;;;15.90;99.90;;;;;;4971270;28;20085;-72
2024/02/03 08:07:19;;;;;;;1.98;0.88;;;16.00;99.90;;;;;;4971730;28;20555;-73
2024/02/03 08:09:45;;;;;;;4.03;1.50;;;16.10;99.90;;;;;;4971553;28;20027;-72
2024/02/03 08:12:11;;;;;;;4.77;1.10;;;16.10;99.90;;;;;;4967591;28;20118;-72
2024/02/03 08:14:36;;;;;;;2.27;0.90;;;16.10;99.90;;;;;;4965593;28;20054;-71
2024/02/03 08:17:03;;;;;;;3.20;0.73;;;16.10;99.90;;;;;;4971682;28;20038;-74
2024/02/03 08:19:28;;;;;;;11.80;2.00;;;16.10;99.90;;;;;;4971688;28;20060;-71
2024/02/03 08:21:54;;;;;;;12.17;1.60;;;16.10;99.90;;;;;;4970196;28;20132;-74
2024/02/03 08:24:20;;;;;;;5.53;1.17;;;16.10;99.90;;;;;;4980829;28;20097;-72
2024/02/03 08:26:46;;;;;;;6.63;1.57;;;16.10;99.90;;;;;;4976383;28;20045;-72
2024/02/03 08:29:12;;;;;;;8.60;1.60;;;16.10;99.90;;;;;;4970972;28;20461;-75
2024/02/03 08:31:37;;;;;;;9.45;1.45;;;16.10;99.90;;;;;;4978881;28;20479;-72
2024/02/03 08:34:03;;;;;;;4.53;1.50;;;16.20;99.90;;;;;;4979665;28;20053;-75
2024/02/03 08:36:29;;;;;;;6.37;1.47;;;16.20;99.90;;;;;;4977069;28;20081;-72
2024/02/03 08:38:55;;;;;;;8.07;1.10;;;16.20;99.90;;;;;;4965386;28;20614;-75
2024/02/03 08:41:21;;;;;;;;;;;16.20;99.90;;;;;;4971002;28;20027;-75
2024/02/03 08:43:46;;;;;;;203.57;103.47;;;16.20;99.90;;;;;;4968776;28;19968;-73
2024/02/03 08:46:12;;;;;;;35.83;17.03;;;16.20;99.90;;;;;;4973223;28;20031;-73
2024/02/03 08:48:38;;;;;;;28.70;8.80;;;16.30;99.90;;;;;;4984984;28;20554;-72
2024/02/03 08:51:04;;;;;;;37.73;16.83;;;16.30;99.90;;;;;;4994861;28;20030;-75
2024/02/03 08:53:30;;;;;;;31.88;15.43;;;16.30;99.90;;;;;;4974001;28;20100;-72
2024/02/03 08:55:55;;;;;;;59.47;37.20;;;16.30;99.90;;;;;;4976670;28;20070;-73
2024/02/03 08:58:21;;;;;;;27.00;16.23;;;16.40;99.90;;;;;;4977253;28;20038;-73
2024/02/03 09:00:47;;;;;;;25.13;12.07;;;16.40;99.90;;;;;;4985775;28;20061;-73
2024/02/03 09:03:12;;;;;;;28.57;14.67;;;16.40;99.90;;;;;;4990081;28;20037;-73
2024/02/03 09:05:38;;;;;;;26.07;13.17;;;16.50;99.90;;;;;;4982411;28;20038;-72
2024/02/03 09:08:04;;;;;;;24.90;12.93;;;16.50;99.90;;;;;;4976900;28;20113;-75
2024/02/03 09:10:30;;;;;;;21.67;12.20;;;16.50;99.90;;;;;;4979611;28;20035;-75
2024/02/03 09:12:56;;;;;;;21.58;11.43;;;16.60;99.90;;;;;;4974998;28;20502;-72
2024/02/03 09:15:22;;;;;;;19.40;10.97;;;16.60;99.90;;;;;;4974082;28;20039;-74
2024/02/03 09:17:50;;;;;;;22.37;13.53;;;16.60;99.90;;;;;;4973123;28;20043;-73
2024/02/03 09:20:15;;;;;;;22.92;12.20;;;16.60;99.90;;;;;;4977217;28;20035;-74
2024/02/03 09:22:42;;;;;;;26.93;11.10;;;16.80;99.90;;;;;;4974492;28;20023;-74
2024/02/03 09:25:08;;;;;;;25.25;10.98;;;16.90;99.90;;;;;;4975829;28;20264;-75
2024/02/03 09:27:33;;;;;;;22.35;9.88;;;16.80;99.90;;;;;;4975261;28;20034;-72
2024/02/03 09:29:59;;;;;;;25.77;10.30;;;16.80;99.90;;;;;;4975126;28;20035;-75
2024/02/03 09:32:28;;;;;;;22.27;9.50;;;16.80;99.90;;;;;;4977711;28;20031;-72
2024/02/03 09:34:55;;;;;;;18.13;9.35;;;16.80;99.90;;;;;;4974887;28;20474;-72
2024/02/03 09:37:20;;;;;;;16.77;8.90;;;16.70;99.90;;;;;;4989720;28;20030;-74
2024/02/03 09:39:46;;;;;;;30.37;15.23;;;16.70;99.90;;;;;;4981912;28;20527;-73
2024/02/03 09:42:13;;;;;;;20.43;10.07;;;16.70;99.90;;;;;;4988758;28;20066;-73
2024/02/03 09:44:38;;;;;;;20.55;11.05;;;16.70;99.90;;;;;;4976928;28;20062;-74
2024/02/03 09:47:05;;;;;;;33.07;10.53;;;16.70;99.90;;;;;;4974083;28;20476;-72
2024/02/03 09:49:30;;;;;;;21.42;9.32;;;16.80;99.90;;;;;;4980251;28;20387;-73
2024/02/03 09:51:57;;;;;;;21.33;9.10;;;16.90;99.90;;;;;;4973704;28;20031;-72
2024/02/03 09:54:24;;;;;;;25.75;9.45;;;17.10;99.90;;;;;;4970627;28;20454;-73
2024/02/03 09:56:50;;;;;;;21.65;8.80;;;17.10;99.90;;;;;;5004570;28;20130;-75
2024/02/03 09:59:16;;;;;;;21.73;8.97;;;17.10;99.90;;;;;;4971202;28;20117;-74
2024/02/03 10:01:46;;;;;;;20.15;8.75;;;17.10;99.90;;;;;;4982067;28;20054;-73
2024/02/03 10:04:15;;;;;;;22.23;9.27;;;17.10;99.90;;;;;;4976173;28;20031;-73
2024/02/03 10:06:42;;;;;;;16.05;7.53;;;17.10;99.90;;;;;;4968555;28;20051;-73
2024/02/03 10:09:10;;;;;;;22.45;8.68;;;17.10;99.90;;;;;;4972908;28;20086;-75
2024/02/03 10:11:41;;;;;;;26.98;7.57;;;17.10;99.90;;;;;;4970362;28;20035;-74
2024/02/03 10:14:07;;;;;;;15.30;6.90;;;17.00;99.90;;;;;;4972573;28;20030;-74
2024/02/03 10:16:46;;;;;;;18.70;6.93;;;17.00;99.90;;;;;;4976329;28;20442;-73
2024/02/03 10:19:12;;;;;;;13.55;6.07;;;17.00;99.90;;;;;;4977322;28;20038;-73
2024/02/03 10:21:38;;;;;;;18.83;6.72;;;17.00;99.90;;;;;;4974693;28;20483;-74
2024/02/03 10:24:04;;;;;;;20.00;6.33;;;17.00;99.90;;;;;;4971728;28;20045;-71
2024/02/03 10:26:30;;;;;;;11.90;5.40;;;16.90;99.90;;;;;;4978454;28;20153;-73
2024/02/03 10:28:55;;;;;;;14.37;6.10;;;16.90;99.90;;;;;;4977176;28;20480;-73
2024/02/03 10:31:23;;;;;;;11.07;5.40;;;16.90;99.90;;;;;;4978811;28;20053;-73
2024/02/03 10:33:49;;;;;;;15.18;5.93;;;16.90;99.90;;;;;;4974819;28;20047;-73
2024/02/03 10:36:15;;;;;;;19.50;6.10;;;16.90;99.90;;;;;;4973248;28;20529;-74
2024/02/03 10:38:41;;;;;;;12.77;4.90;;;16.90;99.90;;;;;;4972413;28;20046;-72
2024/02/03 10:41:12;;;;;;;13.13;4.95;;;16.90;99.90;;;;;;4982283;28;20264;-73
2024/02/03 10:43:38;;;;;;;12.77;5.32;;;16.80;99.90;;;;;;4977144;28;20480;-73
2024/02/03 10:46:08;;;;;;;11.18;5.20;;;16.90;99.90;;;;;;4969105;28;20043;-73
2024/02/03 10:48:42;;;;;;;13.05;5.03;;;16.90;99.90;;;;;;4972514;28;20062;-75
2024/02/03 10:51:23;;;;;;;13.15;5.05;;;16.90;99.90;;;;;;4984655;28;20023;-73
2024/02/03 10:53:55;;;;;;;10.30;4.57;;;16.90;99.90;;;;;;4970642;28;20518;-74
2024/02/03 10:56:23;;;;;;;24.58;10.40;;;16.90;99.90;;;;;;4969817;28;20033;-74
2024/02/03 10:58:49;;;;;;;16.52;5.22;;;16.90;99.90;;;;;;4973578;28;20030;-74
2024/02/03 11:01:20;;;;;;;10.70;4.90;;;16.90;99.90;;;;;;4974976;28;20493;-73
2024/02/03 11:03:51;;;;;;;10.95;4.65;;;17.00;99.90;;;;;;4976699;28;20511;-76
2024/02/03 11:06:47;;;;;;;13.63;4.30;;;17.00;99.90;;;;;;4978821;28;20214;-75
2024/02/03 11:09:19;;;;;;;12.63;4.60;;;17.00;99.90;;;;;;4978020;28;20070;-75
2024/02/03 11:11:48;;;;;;;9.80;3.83;;;17.10;99.90;;;;;;4978110;28;20039;-75
2024/02/03 11:14:16;;;;;;;10.75;4.40;;;17.10;99.90;;;;;;4970541;28;20037;-74
2024/02/03 11:16:42;;;;;;;10.77;4.00;;;17.10;99.90;;;;;;4973284;28;20045;-74
2024/02/03 11:19:14;;;;;;;11.13;4.25;;;17.20;99.90;;;;;;4970696;28;20027;-74
2024/02/03 11:21:44;;;;;;;10.18;4.05;;;17.20;99.90;;;;;;4973723;28;20037;-75
2024/02/03 11:24:10;;;;;;;13.27;3.90;;;17.20;99.90;;;;;;4974063;28;20493;-74
2024/02/03 11:26:37;;;;;;;8.30;3.67;;;17.30;99.90;;;;;;4974460;28;20030;-74
2024/02/03 11:29:04;;;;;;;7.90;3.92;;;17.30;99.90;;;;;;4984813;28;20074;-73
2024/02/03 11:31:33;;;;;;;9.07;3.63;;;17.30;99.90;;;;;;4975754;28;20033;-74
2024/02/03 11:33:58;;;;;;;7.55;3.33;;;17.30;99.90;;;;;;4975605;28;20458;-74
2024/02/03 11:36:25;;;;;;;7.53;3.30;;;17.30;99.90;;;;;;4971493;28;20057;-75
2024/02/03 11:38:52;;;;;;;6.35;3.30;;;17.30;99.90;;;;;;4970628;28;20109;-74
2024/02/03 11:41:19;;;;;;;8.05;3.30;;;17.30;99.90;;;;;;4975376;28;20034;-74
2024/02/03 11:43:46;;;;;;;44.35;19.83;;;17.40;99.90;;;;;;4972114;28;20023;-74
2024/02/03 11:46:12;;;;;;;16.77;6.88;;;17.40;99.90;;;;;;4972531;28;20483;-74
2024/02/03 11:48:39;;;;;;;114.80;48.50;;;17.40;99.90;;;;;;4969826;28;20035;-75
2024/02/03 11:51:05;;;;;;;;;;;17.40;99.90;;;;;;4968850;28;20039;-74
2024/02/03 11:53:31;;;;;;;22.63;10.60;;;17.40;99.90;;;;;;4975033;28;20270;-74
2024/02/03 11:55:56;;;;;;;26.53;11.57;;;17.40;99.90;;;;;;4970716;28;20065;-76
2024/02/03 11:58:25;;;;;;;19.67;9.37;;;17.40;99.90;;;;;;4980675;28;20121;-75
2024/02/03 12:01:11;;;;;;;26.60;8.93;;;17.40;99.90;;;;;;4969327;28;20034;-74
2024/02/03 12:03:38;;;;;;;21.83;9.50;;;17.40;99.90;;;;;;4980580;28;20435;-76
2024/02/03 12:06:10;;;;;;;18.95;9.02;;;17.40;99.90;;;;;;4971465;28;20043;-74
2024/02/03 12:08:35;;;;;;;15.45;7.72;;;17.40;99.90;;;;;;4968670;28;20023;-75
2024/02/03 12:11:01;;;;;;;22.23;7.93;;;17.50;99.90;;;;;;4969682;28;20033;-74
2024/02/03 12:13:37;;;;;;;16.10;6.83;;;17.50;99.90;;;;;;4980598;28;20032;-74
2024/02/03 12:16:04;;;;;;;21.00;6.68;;;17.40;99.90;;;;;;4974986;28;20216;-75
2024/02/03 12:18:30;;;;;;;14.35;6.28;;;17.40;99.90;;;;;;4970457;28;20436;-74
2024/02/03 12:20:56;;;;;;;14.57;5.93;;;17.40;99.90;;;;;;4973706;28;20034;-73
2024/02/03 12:23:23;;;;;;;12.90;5.70;;;17.50;99.90;;;;;;4970288;28;20037;-75
2024/02/03 12:25:49;;;;;;;16.42;6.45;;;17.50;99.90;;;;;;4977172;28;20074;-74
2024/02/03 12:28:17;;;;;;;15.55;6.05;;;17.50;99.90;;;;;;4981157;28;20026;-74
2024/02/03 12:30:53;;;;;;;19.13;5.95;;;17.50;99.90;;;;;;4983275;28;20100;-75
2024/02/03 12:33:19;;;;;;;11.20;5.18;;;17.50;99.90;;;;;;4973974;28;20054;-74
2024/02/03 12:35:44;;;;;;;11.07;4.73;;;17.50;99.90;;;;;;4986466;28;20022;-75
2024/02/03 12:38:10;;;;;;;14.27;4.50;;;17.50;99.90;;;;;;4989092;28;20517;-78